Time;durP1;ratioP1;P1;durP2;ratioP2;P2;SDS_P1;SDS_P2;PMS_P1;PMS_P2;Temp;Humidity;BMP_temperature;BMP_pressure;BME280_temperature;BME280_humidity;BME280_pressure;Samples;Min_cycle;Max_cycle;Signal;HPM_P1;HPM_P2
2023/04/23 00:01:26;;;;;;;;;;;;;;;;;;5095029;28;20056;-68
2023/04/23 00:03:52;;;;;;;;;;;;;;;;;;5094915;28;20025;-68
2023/04/23 00:06:18;;;;;;;;;;;;;;;;;;5094659;28;20358;-68
2023/04/23 00:08:44;;;;;;;;;;;;;;;;;;5094614;28;20001;-68
2023/04/23 00:11:10;;;;;;;;;;;;;;;;;;5094600;28;20403;-68
2023/04/23 00:13:36;;;;;;;;;;;;;;;;;;5094534;28;19959;-68
2023/04/23 00:16:02;;;;;;;;;;;;;;;;;;5094526;28;20485;-68
2023/04/23 00:18:28;;;;;;;;;;;;;;;;;;5094462;28;19955;-68
2023/04/23 00:20:54;;;;;;;;;;;;;;;;;;5094736;28;19956;-68
2023/04/23 00:23:20;;;;;;;;;;;;;;;;;;5094292;28;20457;-68
2023/04/23 00:25:46;;;;;;;;;;;;;;;;;;5094337;28;19959;-68
2023/04/23 00:28:12;;;;;;;;;;;;;;;;;;5094593;28;19963;-68
2023/04/23 00:30:38;;;;;;;;;;;;;;;;;;5094390;28;20009;-68
2023/04/23 00:33:04;;;;;;;;;;;;;;;;;;5094229;28;19955;-68
2023/04/23 00:35:30;;;;;;;;;;;;;;;;;;5094446;28;20369;-68
2023/04/23 00:37:56;;;;;;;;;;;;;;;;;;5094155;28;19959;-68
2023/04/23 00:40:22;;;;;;;;;;;;;;;;;;5093904;28;19987;-68
2023/04/23 00:42:51;;;;;;;;;;;;;;;;;;5094581;28;19982;-68
2023/04/23 00:45:17;;;;;;;;;;;;;;;;;;5093687;28;19955;-68
2023/04/23 00:47:42;;;;;;;;;;;;;;;;;;5094555;28;19963;-69
2023/04/23 00:50:08;;;;;;;;;;;;;;;;;;5094567;28;19955;-69
2023/04/23 00:52:34;;;;;;;;;;;;;;;;;;5093919;28;20373;-68
2023/04/23 00:55:00;;;;;;;;;;;;;;;;;;5093927;28;19955;-68
2023/04/23 00:57:26;;;;;;;;;;;;;;;;;;5094149;28;19963;-68
2023/04/23 00:59:53;;;;;;;;;;;;;;;;;;5093868;28;19962;-68
2023/04/23 01:02:19;;;;;;;;;;;;;;;;;;5094088;28;19955;-68
2023/04/23 01:04:45;;;;;;;;;;;;;;;;;;5093808;28;20334;-68
2023/04/23 01:07:11;;;;;;;;;;;;;;;;;;5093785;28;20423;-68
2023/04/23 01:09:37;;;;;;;;;;;;;;;;;;5094039;28;19955;-68
2023/04/23 01:12:03;;;;;;;;;;;;;;;;;;5093725;28;19962;-68
2023/04/23 01:14:29;;;;;;;;;;;;;;;;;;5094299;28;20404;-69
2023/04/23 01:16:55;;;;;;;;;;;;;;;;;;5093993;28;19956;-68
2023/04/23 01:19:21;;;;;;;;;;;;;;;;;;5093702;28;19950;-68
2023/04/23 01:21:47;;;;;;;;;;;;;;;;;;5094237;28;20040;-69
2023/04/23 01:24:13;;;;;;;;;;;;;;;;;;5093595;28;20003;-68
2023/04/23 01:26:39;;;;;;;;;;;;;;;;;;5094161;28;20392;-68
2023/04/23 01:29:05;;;;;;;;;;;;;;;;;;5093472;28;20340;-68
2023/04/23 01:31:31;;;;;;;;;;;;;;;;;;5093551;28;19951;-68
2023/04/23 01:33:57;;;;;;;;;;;;;;;;;;5093793;28;19944;-68
2023/04/23 01:36:23;;;;;;;;;;;;;;;;;;5093451;28;19957;-68
2023/04/23 01:38:49;;;;;;;;;;;;;;;;;;5093499;28;19976;-68
2023/04/23 01:41:15;;;;;;;;;;;;;;;;;;5093364;28;19984;-68
2023/04/23 01:43:40;;;;;;;;;;;;;;;;;;5093932;28;19973;-68
2023/04/23 01:46:06;;;;;;;;;;;;;;;;;;5093440;28;19957;-68
2023/04/23 01:48:32;;;;;;;;;;;;;;;;;;5093460;28;19968;-68
2023/04/23 01:50:58;;;;;;;;;;;;;;;;;;5093695;28;20069;-68
2023/04/23 01:53:24;;;;;;;;;;;;;;;;;;5093369;28;20403;-68
2023/04/23 01:55:51;;;;;;;;;;;;;;;;;;5093655;28;19948;-68
2023/04/23 01:58:18;;;;;;;;;;;;;;;;;;5096854;28;19974;-68
2023/04/23 02:00:44;;;;;;;;;;;;;;;;;;5097103;28;20026;-68
2023/04/23 02:03:10;;;;;;;;;;;;;;;;;;5096984;28;20073;-68
2023/04/23 02:05:36;;;;;;;;;;;;;;;;;;5097019;28;19952;-68
2023/04/23 02:08:01;;;;;;;;;;;;;;;;;;5097227;28;20046;-69
2023/04/23 02:10:29;;;;;;;;;;;;;;;;;;5096913;28;20381;-68
2023/04/23 02:12:55;;;;;;;;;;;;;;;;;;5096835;28;19963;-68
2023/04/23 02:15:21;;;;;;;;;;;;;;;;;;5097048;28;19964;-68
2023/04/23 02:17:49;;;;;;;;;;;;;;;;;;5096770;28;19956;-68
2023/04/23 02:20:15;;;;;;;;;;;;;;;;;;5096711;28;19958;-68
2023/04/23 02:22:41;;;;;;;;;;;;;;;;;;5096890;28;20068;-68
2023/04/23 02:25:07;;;;;;;;;;;;;;;;;;5096596;28;20042;-69
2023/04/23 02:27:33;;;;;;;;;;;;;;;;;;5097127;28;19955;-68
2023/04/23 02:29:59;;;;;;;;;;;;;;;;;;5096636;28;19971;-68
2023/04/23 02:32:26;;;;;;;;;;;;;;;;;;5097033;28;19966;-68
2023/04/23 02:34:52;;;;;;;;;;;;;;;;;;5096720;28;19980;-68
2023/04/23 02:37:18;;;;;;;;;;;;;;;;;;5096406;28;19955;-68
2023/04/23 02:39:44;;;;;;;;;;;;;;;;;;5096395;28;19962;-68
2023/04/23 02:42:10;;;;;;;;;;;;;;;;;;5095765;28;20006;-68
2023/04/23 02:44:37;;;;;;;;;;;;;;;;;;5096833;28;20002;-68
2023/04/23 02:47:03;;;;;;;;;;;;;;;;;;5094669;28;19960;-68
2023/04/23 02:49:29;;;;;;;;;;;;;;;;;;5096729;28;20540;-68
2023/04/23 02:51:55;;;;;;;;;;;;;;;;;;5096388;28;20004;-68
2023/04/23 02:54:21;;;;;;;;;;;;;;;;;;5096620;28;19955;-68
2023/04/23 02:56:47;;;;;;;;;;;;;;;;;;5096006;28;20407;-68
2023/04/23 02:59:13;;;;;;;;;;;;;;;;;;5096238;28;19955;-68
2023/04/23 03:01:39;;;;;;;;;;;;;;;;;;5095916;28;20040;-68
2023/04/23 03:04:04;;;;;;;;;;;;;;;;;;5096108;28;19975;-68
2023/04/23 03:06:32;;;;;;;;;;;;;;;;;;5095845;28;20005;-68
2023/04/23 03:08:58;;;;;;;;;;;;;;;;;;5095802;28;20430;-68
2023/04/23 03:11:24;;;;;;;;;;;;;;;;;;5095716;28;19963;-68
2023/04/23 03:13:50;;;;;;;;;;;;;;;;;;5095958;28;19955;-68
2023/04/23 03:16:16;;;;;;;;;;;;;;;;;;5095926;28;19966;-68
2023/04/23 03:18:42;;;;;;;;;;;;;;;;;;5095603;28;19962;-68
2023/04/23 03:21:08;;;;;;;;;;;;;;;;;;5095526;28;20068;-68
2023/04/23 03:23:34;;;;;;;;;;;;;;;;;;5095695;28;20000;-68
2023/04/23 03:25:59;;;;;;;;;;;;;;;;;;5095676;28;20008;-68
2023/04/23 03:28:25;;;;;;;;;;;;;;;;;;5095927;28;19959;-68
2023/04/23 03:30:51;;;;;;;;;;;;;;;;;;5095283;28;19971;-68
2023/04/23 03:33:17;;;;;;;;;;;;;;;;;;5095598;28;19990;-68
2023/04/23 03:35:44;;;;;;;;;;;;;;;;;;5095279;28;19959;-68
2023/04/23 03:38:10;;;;;;;;;;;;;;;;;;5095514;28;20415;-68
2023/04/23 03:40:36;;;;;;;;;;;;;;;;;;5095188;28;20001;-68
2023/04/23 03:43:02;;;;;;;;;;;;;;;;;;5095611;28;19978;-68
2023/04/23 03:45:28;;;;;;;;;;;;;;;;;;5095076;28;20051;-68
2023/04/23 03:47:54;;;;;;;;;;;;;;;;;;5095328;28;20009;-68
2023/04/23 03:50:19;;;;;;;;;;;;;;;;;;5094976;28;19955;-68
2023/04/23 03:52:45;;;;;;;;;;;;;;;;;;5094963;28;20487;-68
2023/04/23 03:55:11;;;;;;;;;;;;;;;;;;5094899;28;20092;-68
2023/04/23 03:57:38;;;;;;;;;;;;;;;;;;5095137;28;19959;-68
2023/04/23 04:00:03;;;;;;;;;;;;;;;;;;5094789;28;20004;-68
2023/04/23 04:02:29;;;;;;;;;;;;;;;;;;5094672;28;19974;-69
2023/04/23 04:04:55;;;;;;;;;;;;;;;;;;5095015;28;19959;-68
2023/04/23 04:07:21;;;;;;;;;;;;;;;;;;5093176;28;19985;-68
2023/04/23 04:09:48;;;;;;;;;;;;;;;;;;5094615;28;19955;-68
2023/04/23 04:12:14;;;;;;;;;;;;;;;;;;5094826;28;20005;-68
2023/04/23 04:14:40;;;;;;;;;;;;;;;;;;5094830;28;19948;-69
2023/04/23 04:17:07;;;;;;;;;;;;;;;;;;5095061;28;19951;-68
2023/04/23 04:19:33;;;;;;;;;;;;;;;;;;5093926;28;19995;-68
2023/04/23 04:21:59;;;;;;;;;;;;;;;;;;5094092;28;19944;-68
2023/04/23 04:24:25;;;;;;;;;;;;;;;;;;5094569;28;19965;-68
2023/04/23 04:26:51;;;;;;;;;;;;;;;;;;5094320;28;19998;-68
2023/04/23 04:29:18;;;;;;;;;;;;;;;;;;5094484;28;20336;-68
2023/04/23 04:31:45;;;;;;;;;;;;;;;;;;5094262;28;19942;-69
2023/04/23 04:34:13;;;;;;;;;;;;;;;;;;5094199;28;20036;-69
2023/04/23 04:36:40;;;;;;;;;;;;;;;;;;5094434;28;19945;-68
2023/04/23 04:39:07;;;;;;;;;;;;;;;;;;5094096;28;19948;-68
2023/04/23 04:41:33;;;;;;;;;;;;;;;;;;5093652;28;19990;-68
2023/04/23 04:43:59;;;;;;;;;;;;;;;;;;5093986;28;19964;-68
2023/04/23 04:46:27;;;;;;;;;;;;;;;;;;5094010;28;19946;-68
2023/04/23 04:48:53;;;;;;;;;;;;;;;;;;5093983;28;20024;-68
2023/04/23 04:51:19;;;;;;;;;;;;;;;;;;5094547;28;20396;-68
2023/04/23 04:53:45;;;;;;;;;;;;;;;;;;5094008;28;20034;-68
2023/04/23 04:56:11;;;;;;;;;;;;;;;;;;5094250;28;19946;-68
2023/04/23 04:58:37;;;;;;;;;;;;;;;;;;5094709;28;19951;-68
2023/04/23 05:01:04;;;;;;;;;;;;;;;;;;5093868;28;19980;-68
2023/04/23 05:03:30;;;;;;;;;;;;;;;;;;5093968;28;19986;-68
2023/04/23 05:05:57;;;;;;;;;;;;;;;;;;5094068;28;19959;-68
2023/04/23 05:08:23;;;;;;;;;;;;;;;;;;5093808;28;20054;-68
2023/04/23 05:10:49;;;;;;;;;;;;;;;;;;5093731;28;20067;-68
2023/04/23 05:13:15;;;;;;;;;;;;;;;;;;5094021;28;19950;-68
2023/04/23 05:15:41;;;;;;;;;;;;;;;;;;5093718;28;19997;-68
2023/04/23 05:18:07;;;;;;;;;;;;;;;;;;5093977;28;19962;-68
2023/04/23 05:20:32;;;;;;;;;;;;;;;;;;5092444;28;19992;-68
2023/04/23 05:22:58;;;;;;;;;;;;;;;;;;5092302;28;20007;-68
2023/04/23 05:25:24;;;;;;;;;;;;;;;;;;5093616;28;20025;-68
2023/04/23 05:27:50;;;;;;;;;;;;;;;;;;5094143;28;20296;-68
2023/04/23 05:30:16;;;;;;;;;;;;;;;;;;5093538;28;20461;-68
2023/04/23 05:32:42;;;;;;;;;;;;;;;;;;5095468;28;20423;-68
2023/04/23 05:35:08;;;;;;;;;;;;;;;;;;5097900;28;19988;-70
2023/04/23 05:37:34;;;;;;;;;;;;;;;;;;5097847;28;20437;-69
2023/04/23 05:40:01;;;;;;;;;;;;;;;;;;5097917;28;19959;-70
2023/04/23 05:42:27;;;;;;;;;;;;;;;;;;5097941;28;20354;-72
2023/04/23 05:44:53;;;;;;;;;;;;;;;;;;5097535;28;25080;-73
2023/04/23 05:47:19;;;;;;;;;;;;;;;;;;5097444;28;25059;-73
2023/04/23 05:49:45;;;;;;;;;;;;;;;;;;5097132;28;25071;-75
2023/04/23 05:52:10;;;;;;;;;;;;;;;;;;5097109;28;25138;-76
2023/04/23 05:54:36;;;;;;;;;;;;;;;;;;5097346;28;25066;-75
2023/04/23 05:57:03;;;;;;;;;;;;;;;;;;5097202;28;20364;-75
2023/04/23 05:59:29;;;;;;;;;;;;;;;;;;5097412;28;20302;-74
2023/04/23 06:01:55;;;;;;;;;;;;;;;;;;5097326;28;20385;-75
2023/04/23 06:04:21;;;;;;;;;;;;;;;;;;5096994;28;20417;-72
2023/04/23 06:06:47;;;;;;;;;;;;;;;;;;5097015;28;20822;-75
2023/04/23 06:09:13;;;;;;;;;;;;;;;;;;5096943;28;20347;-73
2023/04/23 06:11:39;;;;;;;;;;;;;;;;;;5096881;28;20343;-72
2023/04/23 06:14:05;;;;;;;;;;;;;;;;;;5096809;28;20381;-73
2023/04/23 06:16:31;;;;;;;;;;;;;;;;;;5097072;28;20355;-73
2023/04/23 06:18:57;;;;;;;;;;;;;;;;;;5097037;28;20700;-73
2023/04/23 06:21:22;;;;;;;;;;;;;;;;;;5096729;28;20359;-76
2023/04/23 06:23:48;;;;;;;;;;;;;;;;;;5096611;28;20374;-74
2023/04/23 06:26:14;;;;;;;;;;;;;;;;;;5096640;28;20381;-73
2023/04/23 06:28:40;;;;;;;;;;;;;;;;;;5096578;28;20726;-75
2023/04/23 06:31:07;;;;;;;;;;;;;;;;;;5096453;28;20371;-73
2023/04/23 06:33:33;;;;;;;;;;;;;;;;;;5096504;28;20351;-74
2023/04/23 06:35:59;;;;;;;;;;;;;;;;;;5096441;28;20445;-73
2023/04/23 06:38:25;;;;;;;;;;;;;;;;;;5096675;28;20434;-72
2023/04/23 06:40:51;;;;;;;;;;;;;;;;;;5096107;28;20803;-72
2023/04/23 06:43:17;;;;;;;;;;;;;;;;;;5095211;28;20432;-72
2023/04/23 06:45:43;;;;;;;;;;;;;;;;;;5096498;28;20714;-72
2023/04/23 06:48:09;;;;;;;;;;;;;;;;;;5096163;28;20359;-71
2023/04/23 06:50:35;;;;;;;;;;;;;;;;;;5096164;28;20351;-70
2023/04/23 06:53:01;;;;;;;;;;;;;;;;;;5096104;28;20819;-70
2023/04/23 06:55:27;;;;;;;;;;;;;;;;;;5096092;28;20355;-69
2023/04/23 06:57:53;;;;;;;;;;;;;;;;;;5096293;28;20303;-67
2023/04/23 07:00:19;;;;;;;;;;;;;;;;;;5095916;28;20381;-67
2023/04/23 07:02:46;;;;;;;;;;;;;;;;;;5096413;28;20595;-66
2023/04/23 07:05:11;;;;;;;;;;;;;;;;;;5096154;28;20216;-66
2023/04/23 07:07:37;;;;;;;;;;;;;;;;;;5095658;28;25068;-66
2023/04/23 07:10:03;;;;;;;;;;;;;;;;;;5095909;28;20180;-67
2023/04/23 07:12:29;;;;;;;;;;;;;;;;;;5095545;28;25068;-67
2023/04/23 07:14:55;;;;;;;;;;;;;;;;;;5095520;28;25163;-67
2023/04/23 07:17:21;;;;;;;;;;;;;;;;;;5095467;28;25102;-67
2023/04/23 07:19:47;;;;;;;;;;;;;;;;;;5095697;28;25063;-68
2023/04/23 07:22:13;;;;;;;;;;;;;;;;;;5095393;28;25065;-69
2023/04/23 07:24:40;;;;;;;;;;;;;;;;;;5095607;28;25070;-68
2023/04/23 07:27:06;;;;;;;;;;;;;;;;;;5095349;28;25137;-69
2023/04/23 07:29:32;;;;;;;;;;;;;;;;;;5095364;28;20119;-69
2023/04/23 07:31:57;;;;;;;;;;;;;;;;;;5095467;28;25084;-69
2023/04/23 07:34:23;;;;;;;;;;;;;;;;;;5095330;28;19970;-68
2023/04/23 07:36:50;;;;;;;;;;;;;;;;;;5095305;28;20428;-69
2023/04/23 07:39:16;;;;;;;;;;;;;;;;;;5095221;28;19973;-68
2023/04/23 07:41:42;;;;;;;;;;;;;;;;;;5095027;28;20018;-69
2023/04/23 07:44:08;;;;;;;;;;;;;;;;;;5095076;28;19976;-68
2023/04/23 07:46:34;;;;;;;;;;;;;;;;;;5095681;28;20042;-68
2023/04/23 07:49:00;;;;;;;;;;;;;;;;;;5095324;28;19959;-68
2023/04/23 07:51:26;;;;;;;;;;;;;;;;;;5094995;28;20407;-67
2023/04/23 07:53:53;;;;;;;;;;;;;;;;;;5094828;28;19970;-67
2023/04/23 07:56:20;;;;;;;;;;;;;;;;;;5095466;28;19959;-67
2023/04/23 07:58:46;;;;;;;;;;;;;;;;;;5094844;28;19961;-67
2023/04/23 08:01:12;;;;;;;;;;;;;;;;;;5095102;28;19954;-66
2023/04/23 08:03:37;;;;;;;;;;;;;;;;;;5094975;28;19975;-66
2023/04/23 08:06:03;;;;;;;;;;;;;;;;;;5094726;28;20054;-66
2023/04/23 08:08:29;;;;;;;;;;;;;;;;;;5094707;28;19963;-67
2023/04/23 08:10:55;;;;;;;;;;;;;;;;;;5094619;28;19956;-67
2023/04/23 08:13:21;;;;;;;;;;;;;;;;;;5095142;28;20004;-67
2023/04/23 08:15:48;;;;;;;;;;;;;;;;;;5094557;28;19956;-67
2023/04/23 08:18:14;;;;;;;;;;;;;;;;;;5093030;28;20062;-67
2023/04/23 08:20:40;;;;;;;;;;;;;;;;;;5094450;28;19991;-68
2023/04/23 08:23:06;;;;;;;;;;;;;;;;;;5094910;28;20004;-68
2023/04/23 08:25:31;;;;;;;;;;;;;;;;;;5094405;28;19955;-68
2023/04/23 08:27:57;;;;;;;;;;;;;;;;;;5094888;28;20426;-68
2023/04/23 08:30:23;;;;;;;;;;;;;;;;;;5094339;28;19999;-68
2023/04/23 08:32:50;;;;;;;;;;;;;;;;;;5094531;28;20054;-68
2023/04/23 08:35:16;;;;;;;;;;;;;;;;;;5094480;28;20046;-68
2023/04/23 08:37:42;;;;;;;;;;;;;;;;;;5092892;28;20040;-67
2023/04/23 08:40:08;;;;;;;;;;;;;;;;;;5094186;28;20322;-67
2023/04/23 08:42:34;;;;;;;;;;;;;;;;;;5094358;28;19955;-67
2023/04/23 08:45:00;;;;;;;;;;;;;;;;;;5094106;28;20351;-67
2023/04/23 08:47:26;;;;;;;;;;;;;;;;;;5094630;28;19959;-67
2023/04/23 08:49:52;;;;;;;;;;;;;;;;;;5093981;28;19962;-67
2023/04/23 08:52:18;;;;;;;;;;;;;;;;;;5094266;28;19955;-67
2023/04/23 08:54:44;;;;;;;;;;;;;;;;;;5093956;28;19955;-67
2023/04/23 08:57:10;;;;;;;;;;;;;;;;;;5092605;28;20013;-67
2023/04/23 08:59:35;;;;;;;;;;;;;;;;;;5094440;28;19966;-67
2023/04/23 09:02:06;;;;;;;;;;;;;;;;;;5093864;28;20005;-67
2023/04/23 09:04:32;;;;;;;;;;;;;;;;;;5092514;28;19986;-67
2023/04/23 09:06:59;;;;;;;;;;;;;;;;;;5093558;28;19956;-67
2023/04/23 09:09:25;;;;;;;;;;;;;;;;;;5093788;28;19963;-66
2023/04/23 09:11:51;;;;;;;;;;;;;;;;;;5093767;28;19955;-67
2023/04/23 09:14:17;;;;;;;;;;;;;;;;;;5093187;28;19956;-67
2023/04/23 09:16:43;;;;;;;;;;;;;;;;;;5093746;28;20342;-66
2023/04/23 09:19:09;;;;;;;;;;;;;;;;;;5094107;28;20316;-66
2023/04/23 09:21:35;;;;;;;;;;;;;;;;;;5093541;28;19956;-66
2023/04/23 09:24:01;;;;;;;;;;;;;;;;;;5093441;28;19982;-66
2023/04/23 09:26:27;;;;;;;;;;;;;;;;;;5093633;28;19981;-66
2023/04/23 09:28:53;;;;;;;;;;;;;;;;;;5093451;28;19955;-66
2023/04/23 09:31:19;;;;;;;;;;;;;;;;;;5093222;28;20340;-67
2023/04/23 09:33:45;;;;;;;;;;;;;;;;;;5093874;28;19997;-66
2023/04/23 09:36:11;;;;;;;;;;;;;;;;;;5093238;28;19995;-66
2023/04/23 09:38:36;;;;;;;;;;;;;;;;;;5093529;28;19959;-66
2023/04/23 09:41:02;;;;;;;;;;;;;;;;;;5093348;28;19991;-66
2023/04/23 09:43:28;;;;;;;;;;;;;;;;;;5093415;28;19982;-66
2023/04/23 09:45:54;;;;;;;;;;;;;;;;;;5093401;28;19993;-66
2023/04/23 09:48:20;;;;;;;;;;;;;;;;;;5093666;28;19967;-66
2023/04/23 09:50:46;;;;;;;;;;;;;;;;;;5093303;28;19959;-67
2023/04/23 09:53:12;;;;;;;;;;;;;;;;;;5093642;28;19956;-67
2023/04/23 09:55:38;;;;;;;;;;;;;;;;;;5093364;28;19955;-66
2023/04/23 09:58:04;;;;;;;;;;;;;;;;;;5093774;28;20466;-66
2023/04/23 10:00:30;;;;;;;;;;;;;;;;;;5092845;28;19955;-66
2023/04/23 10:02:56;;;;;;;;;;;;;;;;;;5092952;28;20029;-67
2023/04/23 10:05:22;;;;;;;;;;;;;;;;;;5093343;28;19962;-67
2023/04/23 10:07:48;;;;;;;;;;;;;;;;;;5093536;28;20430;-67
2023/04/23 10:10:13;;;;;;;;;;;;;;;;;;5093237;28;20331;-67
2023/04/23 10:12:39;;;;;;;;;;;;;;;;;;5093286;28;20464;-67
2023/04/23 10:15:06;;;;;;;;;;;;;;;;;;5092949;28;19978;-66
2023/04/23 10:17:32;;;;;;;;;;;;;;;;;;5093325;28;19962;-66
2023/04/23 10:19:58;;;;;;;;;;;;;;;;;;5096379;28;20335;-66
2023/04/23 10:22:24;;;;;;;;;;;;;;;;;;5097238;28;19977;-66
2023/04/23 10:24:50;;;;;;;;;;;;;;;;;;5096704;28;20037;-66
2023/04/23 10:27:16;;;;;;;;;;;;;;;;;;5096659;28;19959;-66
2023/04/23 10:29:42;;;;;;;;;;;;;;;;;;5096551;28;19979;-66
2023/04/23 10:32:08;;;;;;;;;;;;;;;;;;5096556;28;20381;-66
2023/04/23 10:34:34;;;;;;;;;;;;;;;;;;5095213;28;20062;-66
2023/04/23 10:37:00;;;;;;;;;;;;;;;;;;5096715;28;20097;-66
2023/04/23 10:39:26;;;;;;;;;;;;;;;;;;5096652;28;19978;-66
2023/04/23 10:41:52;;;;;;;;;;;;;;;;;;5096002;28;20038;-66
2023/04/23 10:44:20;;;;;;;;;;;;;;;;;;5096527;28;19981;-66
2023/04/23 10:46:46;;;;;;;;;;;;;;;;;;5096557;28;19959;-66
2023/04/23 10:49:15;;;;;;;;;;;;;;;;;;5096486;28;19962;-66
2023/04/23 10:51:44;;;;;;;;;;;;;;;;;;5096477;28;19962;-66
2023/04/23 10:54:10;;;;;;;;;;;;;;;;;;5096138;28;19987;-66
2023/04/23 10:56:36;;;;;;;;;;;;;;;;;;5096361;28;19955;-66
2023/04/23 10:59:02;;;;;;;;;;;;;;;;;;5096316;28;20323;-66
2023/04/23 11:01:29;;;;;;;;;;;;;;;;;;5096519;28;20080;-66
2023/04/23 11:03:55;;;;;;;;;;;;;;;;;;5096108;28;19975;-66
2023/04/23 11:06:20;;;;;;;;;;;;;;;;;;5096457;28;19955;-66
2023/04/23 11:08:46;;;;;;;;;;;;;;;;;;5096175;28;20322;-66
2023/04/23 11:11:12;;;;;;;;;;;;;;;;;;5094515;28;19963;-66
2023/04/23 11:13:38;;;;;;;;;;;;;;;;;;5096080;28;19955;-66
2023/04/23 11:16:04;;;;;;;;;;;;;;;;;;5095735;28;19994;-66
2023/04/23 11:18:30;;;;;;;;;;;;;;;;;;5095962;28;19955;-66
2023/04/23 11:20:56;;;;;;;;;;;;;;;;;;5095932;28;19984;-65
2023/04/23 11:23:22;;;;;;;;;;;;;;;;;;5096087;28;19975;-66
2023/04/23 11:25:48;;;;;;;;;;;;;;;;;;5095495;28;20446;-66
2023/04/23 11:28:14;;;;;;;;;;;;;;;;;;5095519;28;19962;-66
2023/04/23 11:30:40;;;;;;;;;;;;;;;;;;5095500;28;20100;-66
2023/04/23 11:33:06;;;;;;;;;;;;;;;;;;5095396;28;19994;-66
2023/04/23 11:35:38;;;;;;;;;;;;;;;;;;5094103;28;19967;-66
2023/04/23 11:38:04;;;;;;;;;;;;;;;;;;5093724;28;19966;-66
2023/04/23 11:40:31;;;;;;;;;;;;;;;;;;5095256;28;19987;-67
2023/04/23 11:42:58;;;;;;;;;;;;;;;;;;5095454;28;20372;-66
2023/04/23 11:45:24;;;;;;;;;;;;;;;;;;5095135;28;19952;-66
2023/04/23 11:47:50;;;;;;;;;;;;;;;;;;5095102;28;19955;-66
2023/04/23 11:50:15;;;;;;;;;;;;;;;;;;5095067;28;19959;-67
2023/04/23 11:52:41;;;;;;;;;;;;;;;;;;5095306;28;20001;-67
2023/04/23 11:55:07;;;;;;;;;;;;;;;;;;5094943;28;20484;-67
2023/04/23 11:57:33;;;;;;;;;;;;;;;;;;5094875;28;19954;-67
2023/04/23 11:59:59;;;;;;;;;;;;;;;;;;5094834;28;20307;-67
2023/04/23 12:02:25;;;;;;;;;;;;;;;;;;5094780;28;19979;-68
2023/04/23 12:04:52;;;;;;;;;;;;;;;;;;5095003;28;20054;-67
2023/04/23 12:07:18;;;;;;;;;;;;;;;;;;5094756;28;19949;-67
2023/04/23 12:09:44;;;;;;;;;;;;;;;;;;5094734;28;20392;-68
2023/04/23 12:12:10;;;;;;;;;;;;;;;;;;5094663;28;20439;-68
2023/04/23 12:14:35;;;;;;;;;;;;;;;;;;5094850;28;19949;-68
2023/04/23 12:17:01;;;;;;;;;;;;;;;;;;5094594;28;19957;-67
2023/04/23 12:19:27;;;;;;;;;;;;;;;;;;5094523;28;19951;-67
2023/04/23 12:21:53;;;;;;;;;;;;;;;;;;5094489;28;19952;-66
2023/04/23 12:24:20;;;;;;;;;;;;;;;;;;5094388;28;20313;-66
2023/04/23 12:26:47;;;;;;;;;;;;;;;;;;5094446;28;19957;-67
2023/04/23 12:29:13;;;;;;;;;;;;;;;;;;5094310;28;20311;-67
2023/04/23 12:31:39;;;;;;;;;;;;;;;;;;5094881;28;20301;-66
2023/04/23 12:34:05;;;;;;;;;;;;;;;;;;5094258;28;19962;-66
2023/04/23 12:36:30;;;;;;;;;;;;;;;;;;5094514;28;19956;-66
2023/04/23 12:38:56;;;;;;;;;;;;;;;;;;5094179;28;20335;-66
2023/04/23 12:41:22;;;;;;;;;;;;;;;;;;5093462;28;20367;-66
2023/04/23 12:43:49;;;;;;;;;;;;;;;;;;5094073;28;19975;-66
2023/04/23 12:46:15;;;;;;;;;;;;;;;;;;5094402;28;19959;-66
2023/04/23 12:48:41;;;;;;;;;;;;;;;;;;5094113;28;19955;-66
2023/04/23 12:51:08;;;;;;;;;;;;;;;;;;5092695;28;20009;-66
2023/04/23 12:53:34;;;;;;;;;;;;;;;;;;5094515;28;19955;-65
2023/04/23 12:56:00;;;;;;;;;;;;;;;;;;5093980;28;19963;-66
2023/04/23 12:58:26;;;;;;;;;;;;;;;;;;5094517;28;20391;-66
2023/04/23 13:00:53;;;;;;;;;;;;;;;;;;5093891;28;19959;-66
2023/04/23 13:03:19;;;;;;;;;;;;;;;;;;5093838;28;20466;-65
2023/04/23 13:05:46;;;;;;;;;;;;;;;;;;5093856;28;20069;-66
2023/04/23 13:08:12;;;;;;;;;;;;;;;;;;5094401;28;19962;-66
2023/04/23 13:10:38;;;;;;;;;;;;;;;;;;5094055;28;19955;-66
2023/04/23 13:13:04;;;;;;;;;;;;;;;;;;5093766;28;19955;-65
2023/04/23 13:15:30;;;;;;;;;;;;;;;;;;5093656;28;19955;-66
2023/04/23 13:17:56;;;;;;;;;;;;;;;;;;5094364;28;19982;-65
2023/04/23 13:20:24;;;;;;;;;;;;;;;;;;5093728;28;19959;-66
2023/04/23 13:22:50;;;;;;;;;;;;;;;;;;5093596;28;19998;-66
2023/04/23 13:25:15;;;;;;;;;;;;;;;;;;5094209;28;20336;-65
2023/04/23 13:27:41;;;;;;;;;;;;;;;;;;5093653;28;19966;-66
2023/04/23 13:30:07;;;;;;;;;;;;;;;;;;5093577;28;19971;-65
2023/04/23 13:32:33;;;;;;;;;;;;;;;;;;5093648;28;19955;-66
2023/04/23 13:35:01;;;;;;;;;;;;;;;;;;5093816;28;19978;-65
2023/04/23 13:37:27;;;;;;;;;;;;;;;;;;5093790;28;20376;-66
2023/04/23 13:39:53;;;;;;;;;;;;;;;;;;5094110;28;20009;-65
2023/04/23 13:42:19;;;;;;;;;;;;;;;;;;5093380;28;20085;-65
2023/04/23 13:44:45;;;;;;;;;;;;;;;;;;5093688;28;20024;-66
2023/04/23 13:47:11;;;;;;;;;;;;;;;;;;5093440;28;20388;-65
2023/04/23 13:49:37;;;;;;;;;;;;;;;;;;5093433;28;19959;-66
2023/04/23 13:52:05;;;;;;;;;;;;;;;;;;5094324;28;20311;-65
2023/04/23 13:54:31;;;;;;;;;;;;;;;;;;5098091;28;19955;-66
2023/04/23 13:56:57;;;;;;;;;;;;;;;;;;5097484;28;19959;-66
2023/04/23 13:59:22;;;;;;;;;;;;;;;;;;5097754;28;20000;-66
2023/04/23 14:01:48;;;;;;;;;;;;;;;;;;5097166;28;20024;-65
2023/04/23 14:04:14;;;;;;;;;;;;;;;;;;5097310;28;20074;-66
2023/04/23 14:06:40;;;;;;;;;;;;;;;;;;5097069;28;20046;-66
2023/04/23 14:09:06;;;;;;;;;;;;;;;;;;5097300;28;19998;-66
2023/04/23 14:11:32;;;;;;;;;;;;;;;;;;5096929;28;19987;-66
2023/04/23 14:13:59;;;;;;;;;;;;;;;;;;5096904;28;19962;-66
2023/04/23 14:16:25;;;;;;;;;;;;;;;;;;5097170;28;19955;-66
2023/04/23 14:18:51;;;;;;;;;;;;;;;;;;5096820;28;19955;-66
2023/04/23 14:21:17;;;;;;;;;;;;;;;;;;5096831;28;19955;-66
2023/04/23 14:23:43;;;;;;;;;;;;;;;;;;5097030;28;19975;-66
2023/04/23 14:26:09;;;;;;;;;;;;;;;;;;5096690;28;20008;-66
2023/04/23 14:28:35;;;;;;;;;;;;;;;;;;5097177;28;19955;-66
2023/04/23 14:31:01;;;;;;;;;;;;;;;;;;5096602;28;20062;-66
2023/04/23 14:33:27;;;;;;;;;;;;;;;;;;5097122;28;20455;-66
2023/04/23 14:35:53;;;;;;;;;;;;;;;;;;5096787;28;19955;-65
2023/04/23 14:38:19;;;;;;;;;;;;;;;;;;5096492;28;20034;-66
2023/04/23 14:40:45;;;;;;;;;;;;;;;;;;5096419;28;20078;-66
2023/04/23 14:43:11;;;;;;;;;;;;;;;;;;5096888;28;19979;-66
2023/04/23 14:45:36;;;;;;;;;;;;;;;;;;5095051;28;19963;-65
2023/04/23 14:48:02;;;;;;;;;;;;;;;;;;5096332;28;19956;-66
2023/04/23 14:50:28;;;;;;;;;;;;;;;;;;5096332;28;19962;-66
2023/04/23 14:52:54;;;;;;;;;;;;;;;;;;5096502;28;20322;-66
2023/04/23 14:55:20;;;;;;;;;;;;;;;;;;5096467;28;19955;-66
2023/04/23 14:57:46;;;;;;;;;;;;;;;;;;5096408;28;20445;-66
2023/04/23 15:00:12;;;;;;;;;;;;;;;;;;5096059;28;19955;-66
2023/04/23 15:02:39;;;;;;;;;;;;;;;;;;5095926;28;19963;-66
2023/04/23 15:05:05;;;;;;;;;;;;;;;;;;5095383;28;20342;-66
2023/04/23 15:07:32;;;;;;;;;;;;;;;;;;5095939;28;20042;-66
2023/04/23 15:10:05;;;;;;;;;;;;;;;;;;5095871;28;19987;-67
2023/04/23 15:12:30;;;;;;;;;;;;;;;;;;5095807;28;19981;-68
2023/04/23 15:14:56;;;;;;;;;;;;;;;;;;5095803;28;20419;-68
2023/04/23 15:17:22;;;;;;;;;;;;;;;;;;5095712;28;20004;-68
2023/04/23 15:19:48;;;;;;;;;;;;;;;;;;5096270;28;20426;-68
2023/04/23 15:22:14;;;;;;;;;;;;;;;;;;5095947;28;19994;-68
2023/04/23 15:24:40;;;;;;;;;;;;;;;;;;5095834;28;20009;-68
2023/04/23 15:27:07;;;;;;;;;;;;;;;;;;5095538;28;19963;-68
2023/04/23 15:29:33;;;;;;;;;;;;;;;;;;5095409;28;20006;-67
2023/04/23 15:31:58;;;;;;;;;;;;;;;;;;5095721;28;20005;-68
2023/04/23 15:34:24;;;;;;;;;;;;;;;;;;5095636;28;19977;-68
2023/04/23 15:36:50;;;;;;;;;;;;;;;;;;5095330;28;19962;-68
2023/04/23 15:39:16;;;;;;;;;;;;;;;;;;5095603;28;19981;-68
2023/04/23 15:41:42;;;;;;;;;;;;;;;;;;5094908;28;19998;-68
2023/04/23 15:44:09;;;;;;;;;;;;;;;;;;5095452;28;19974;-68
2023/04/23 15:46:35;;;;;;;;;;;;;;;;;;5095196;28;19980;-68
2023/04/23 15:49:02;;;;;;;;;;;;;;;;;;5095105;28;19955;-68
2023/04/23 15:51:28;;;;;;;;;;;;;;;;;;5095367;28;20041;-68
2023/04/23 15:53:54;;;;;;;;;;;;;;;;;;5095041;28;20025;-68
2023/04/23 15:56:20;;;;;;;;;;;;;;;;;;5096036;28;19959;-68
2023/04/23 15:58:46;;;;;;;;;;;;;;;;;;5094905;28;19963;-68
2023/04/23 16:01:12;;;;;;;;;;;;;;;;;;5094864;28;20308;-68
2023/04/23 16:03:38;;;;;;;;;;;;;;;;;;5094745;28;19982;-68
2023/04/23 16:06:04;;;;;;;;;;;;;;;;;;5095382;28;20332;-68
2023/04/23 16:08:31;;;;;;;;;;;;;;;;;;5095001;28;19962;-68
2023/04/23 16:10:58;;;;;;;;;;;;;;;;;;5094992;28;20434;-68
2023/04/23 16:13:24;;;;;;;;;;;;;;;;;;5094695;28;19981;-68
2023/04/23 16:15:51;;;;;;;;;;;;;;;;;;5094613;28;19955;-68
2023/04/23 16:18:17;;;;;;;;;;;;;;;;;;5094844;28;20407;-67
2023/04/23 16:20:43;;;;;;;;;;;;;;;;;;5094804;28;19955;-68
2023/04/23 16:23:08;;;;;;;;;;;;;;;;;;5094430;28;20013;-68
2023/04/23 16:25:35;;;;;;;;;;;;;;;;;;5095013;28;20327;-68
2023/04/23 16:28:03;;;;;;;;;;;;;;;;;;5094419;28;20461;-68
2023/04/23 16:30:29;;;;;;;;;;;;;;;;;;5094258;28;20320;-68
2023/04/23 16:32:55;;;;;;;;;;;;;;;;;;5094933;28;19976;-67
2023/04/23 16:35:21;;;;;;;;;;;;;;;;;;5094511;28;20466;-67
2023/04/23 16:37:47;;;;;;;;;;;;;;;;;;5094846;28;20009;-68